Time;durP1;ratioP1;P1;durP2;ratioP2;P2;SDS_P1;SDS_P2;PMS_P1;PMS_P2;Temp;Humidity;BMP_temperature;BMP_pressure;BME280_temperature;BME280_humidity;BME280_pressure;Samples;Min_cycle;Max_cycle;Signal;HPM_P1;HPM_P2
2022/10/06 08:01:38;;;;;;;15.10;5.82;;;;;;;12.09;84.28;102672.19;5278197;27;1935789;-74
2022/10/06 08:04:11;;;;;;;13.13;4.18;;;;;;;12.08;84.03;102678.00;5304485;28;20042;-76
2022/10/06 08:06:43;;;;;;;17.85;4.35;;;;;;;12.11;83.98;102688.59;5302788;28;20036;-76
2022/10/06 08:09:14;;;;;;;13.73;4.40;;;;;;;12.15;83.12;102682.28;5302424;28;20033;-76
2022/10/06 08:11:47;;;;;;;14.88;3.70;;;;;;;12.24;83.08;102690.16;5304358;28;20054;-78
2022/10/06 08:14:18;;;;;;;18.33;4.03;;;;;;;12.24;83.44;102695.75;5303383;28;20051;-79
2022/10/06 08:16:51;;;;;;;11.25;4.35;;;;;;;12.34;82.27;102698.66;5308427;28;20430;-79
2022/10/06 08:19:22;;;;;;;11.63;3.88;;;;;;;12.41;82.62;102707.69;5319569;28;20024;-77
2022/10/06 08:21:56;;;;;;;12.90;3.78;;;;;;;12.43;83.22;102711.03;5304427;28;20051;-79
2022/10/06 08:24:28;;;;;;;18.38;4.88;;;;;;;12.49;83.49;102714.75;5303725;28;20024;-78
2022/10/06 08:26:59;;;;;;;15.10;3.75;;;;;;;12.57;83.28;102715.13;5317335;28;20435;-79
2022/10/06 08:29:32;;;;;;;13.82;3.50;;;;;;;12.71;83.31;102717.56;5309471;28;20050;-78
2022/10/06 08:32:04;;;;;;;11.98;3.67;;;;;;;12.65;82.31;102724.97;5309640;28;20027;-78
2022/10/06 08:34:35;;;;;;;17.20;3.83;;;;;;;12.76;82.80;102728.75;5303940;28;20024;-79
2022/10/06 08:37:07;;;;;;;9.95;3.58;;;;;;;12.76;80.89;102725.97;5311711;28;20390;-76
2022/10/06 08:39:40;;;;;;;10.82;3.83;;;;;;;12.82;80.27;102733.28;5322217;28;20035;-76
2022/10/06 08:42:17;;;;;;;14.55;4.18;;;;;;;12.85;80.58;102738.31;5322544;28;20024;-76
2022/10/06 08:44:56;;;;;;;11.90;3.65;;;;;;;12.89;81.26;102736.72;5321867;28;20161;-79
2022/10/06 08:47:32;;;;;;;10.75;4.13;;;;;;;13.01;81.44;102739.34;5316852;28;20107;-79
2022/10/06 08:50:11;;;;;;;9.13;3.08;;;;;;;13.07;81.33;102740.28;5314577;28;20039;-79
2022/10/06 08:53:00;;;;;;;13.48;3.30;;;;;;;13.11;80.12;102744.19;5300740;28;20165;-80
2022/10/06 08:55:38;;;;;;;17.45;3.80;;;;;;;13.19;81.12;102740.94;5300977;28;20051;-80
2022/10/06 08:58:31;;;;;;;14.07;3.85;;;;;;;13.22;80.71;102746.00;5300467;28;20032;-79
2022/10/06 09:01:25;;;;;;;15.90;5.38;;;;;;;13.30;79.72;102748.34;5318514;28;20048;-76
2022/10/06 09:04:02;;;;;;;14.48;3.78;;;;;;;13.35;79.79;102750.38;5309822;28;20027;-84
2022/10/06 09:06:58;;;;;;;8.18;3.67;;;;;;;13.39;80.40;102759.88;5327310;28;20032;-82
2022/10/06 09:09:53;;;;;;;9.85;3.08;;;;;;;13.43;79.47;102759.09;5328090;28;20421;-84
2022/10/06 09:12:28;;;;;;;12.75;3.60;;;;;;;13.43;78.91;102769.41;5318218;28;20031;-86
2022/10/06 09:15:18;;;;;;;12.80;3.05;;;;;;;13.53;78.63;102763.09;5317597;28;20374;-86
2022/10/06 09:18:09;;;;;;;13.38;3.55;;;;;;;13.61;79.39;102771.81;5314715;28;20043;-82
2022/10/06 09:20:52;;;;;;;12.65;3.83;;;;;;;13.73;79.14;102780.03;5314982;28;20023;-85
2022/10/06 09:26:30;;;;;;;12.60;3.28;;;;;;;13.94;78.31;102775.47;5286151;28;20440;-77
2022/10/06 09:29:01;;;;;;;6.85;2.83;;;;;;;14.02;77.24;102782.50;5303994;28;20111;-77
2022/10/06 09:31:38;;;;;;;19.38;7.15;;;;;;;14.09;76.36;102783.13;5303996;28;20111;-76
2022/10/06 09:34:33;;;;;;;16.80;4.40;;;;;;;14.19;76.54;102779.56;5305379;28;20074;-77
2022/10/06 09:37:09;;;;;;;15.30;7.57;;;;;;;14.17;75.15;102779.84;5305793;28;20077;-78
2022/10/06 09:39:48;;;;;;;14.35;4.47;;;;;;;14.23;74.95;102787.13;5309098;28;20047;-77
2022/10/06 09:42:34;;;;;;;13.68;3.38;;;;;;;14.28;74.64;102789.97;5298609;28;20031;-78
2022/10/06 09:45:23;;;;;;;10.00;2.90;;;;;;;14.27;73.56;102791.09;5305097;28;20024;-79
2022/10/06 09:48:11;;;;;;;12.30;3.03;;;;;;;14.25;74.04;102801.66;5289930;28;20356;-76
2022/10/06 09:50:42;;;;;;;9.70;3.55;;;;;;;14.17;73.46;102796.59;5307601;28;20024;-78
2022/10/06 09:53:15;;;;;;;9.60;3.67;;;;;;;14.08;73.02;102795.38;5314391;28;20024;-76
2022/10/06 09:55:53;;;;;;;9.13;3.50;;;;;;;14.04;72.78;102802.63;5299237;28;20440;-76
2022/10/06 09:58:36;;;;;;;10.93;3.28;;;;;;;14.11;73.48;102809.66;5309989;28;20020;-84
2022/10/06 10:01:11;;;;;;;11.00;2.80;;;;;;;14.19;73.37;102805.53;5310886;28;20052;-80
2022/10/06 10:03:51;;;;;;;10.15;2.78;;;;;;;14.19;72.15;102805.53;5327333;28;20032;-80
2022/10/06 10:06:28;;;;;;;13.77;3.22;;;;;;;14.11;71.63;102803.22;5327635;28;20032;-79
2022/10/06 10:09:18;;;;;;;9.23;3.10;;;;;;;14.14;72.90;102802.69;5326372;28;20012;-77
2022/10/06 10:15:23;;;;;;;10.30;2.72;;;;;;;14.29;71.61;102799.16;5315508;28;20028;-83
2022/10/06 10:18:01;;;;;;;9.52;3.10;;;;;;;14.45;70.04;102802.94;5318629;28;20040;-84
2022/10/06 10:20:54;;;;;;;14.23;6.07;;;;;;;14.49;69.50;102806.84;5323934;28;20031;-84
2022/10/06 10:23:29;;;;;;;10.65;3.13;;;;;;;14.58;68.78;102810.88;5326384;28;20035;-81
2022/10/06 10:26:37;;;;;;;12.80;3.90;;;;;;;14.66;68.03;102807.56;5322691;28;20024;-81
2022/10/06 10:29:43;;;;;;;8.05;3.35;;;;;;;14.76;68.59;102801.22;5302191;28;20043;-82
2022/10/06 10:32:41;;;;;;;11.80;3.10;;;;;;;14.84;67.12;102802.66;5304867;28;20067;-83
2022/10/06 10:35:24;;;;;;;7.57;2.53;;;;;;;14.93;66.28;102803.78;5299329;28;20024;-83
2022/10/06 10:37:59;;;;;;;9.63;3.10;;;;;;;14.96;64.54;102808.84;5296364;28;20056;-77
2022/10/06 10:40:43;;;;;;;10.52;2.17;;;;;;;14.99;63.52;102800.75;5286221;28;20643;-79
2022/10/06 10:43:36;;;;;;;6.15;2.60;;;;;;;15.11;64.17;102803.34;5298789;28;20033;-80
2022/10/06 10:46:29;;;;;;;8.05;2.00;;;;;;;15.13;62.12;102805.84;5290835;28;20033;-83
2022/10/06 10:49:26;;;;;;;4.75;1.75;;;;;;;15.09;61.55;102802.78;5288717;28;20095;-82
2022/10/06 10:52:19;;;;;;;6.97;1.90;;;;;;;15.13;62.30;102806.69;5288604;28;20463;-83
2022/10/06 10:55:20;;;;;;;6.18;2.50;;;;;;;15.23;62.94;102801.13;5289802;28;20055;-83
2022/10/06 10:57:58;;;;;;;8.82;4.82;;;;;;;15.30;63.76;102809.28;5277951;28;20092;-83
2022/10/06 11:00:35;;;;;;;6.95;2.25;;;;;;;15.32;62.51;102803.41;5315425;28;20487;-83
2022/10/06 11:03:10;;;;;;;8.02;3.58;;;;;;;15.38;63.37;102816.28;5313687;28;20027;-83
2022/10/06 11:05:51;;;;;;;7.95;3.15;;;;;;;15.46;63.40;102812.94;5311603;28;20052;-84
2022/10/06 11:08:38;;;;;;;8.80;2.60;;;;;;;15.43;62.12;102814.34;5298790;28;20039;-84
2022/10/06 11:11:19;;;;;;;7.57;2.35;;;;;;;15.46;62.26;102815.75;5318173;28;20020;-84
2022/10/06 11:13:55;;;;;;;10.05;3.65;;;;;;;15.49;62.52;102812.41;5320429;28;20067;-84
2022/10/06 11:17:00;;;;;;;7.07;2.85;;;;;;;15.56;62.42;102807.38;5301890;28;20031;-85
2022/10/06 11:19:47;;;;;;;10.00;4.18;;;;;;;15.61;63.43;102809.34;5308649;28;20079;-85
2022/10/06 11:22:48;;;;;;;6.90;2.53;;;;;;;15.59;61.75;102817.19;5293292;28;20056;-85
2022/10/06 11:25:19;;;;;;;10.48;2.55;;;;;;;15.59;62.30;102812.41;5253592;28;20037;-84
2022/10/06 11:27:51;;;;;;;9.55;2.63;;;;;;;15.58;62.23;102821.94;5312728;28;20050;-85
2022/10/06 11:33:53;;;;;;;11.45;3.50;;;;;;;15.72;60.65;102813.03;5324457;28;20036;-85
2022/10/06 11:36:43;;;;;;;7.25;2.40;;;;;;;15.77;59.77;102821.44;5325908;28;20012;-85
2022/10/06 11:39:29;;;;;;;9.18;3.10;;;;;;;15.84;59.25;102813.63;5292317;28;20052;-84
2022/10/06 11:42:24;;;;;;;8.02;2.83;;;;;;;15.96;59.69;102811.41;5308508;28;20016;-81
2022/10/06 11:45:02;;;;;;;8.43;2.17;;;;;;;15.99;58.20;102818.41;5326208;27;20091;-84
2022/10/06 11:47:42;;;;;;;5.60;2.50;;;;;;;16.01;57.75;102816.19;5321245;28;20031;-83
2022/10/06 11:50:32;;;;;;;5.85;2.13;;;;;;;16.07;58.67;102817.84;5306511;28;20020;-83
2022/10/06 11:53:36;;;;;;;8.75;4.13;;;;;;;16.11;60.09;102807.78;5302675;28;20069;-84
2022/10/06 11:56:16;;;;;;;6.60;3.03;;;;;;;16.20;59.81;102802.44;5304674;28;20013;-83
2022/10/06 11:58:50;;;;;;;7.90;2.88;;;;;;;16.26;59.18;102810.59;5305758;28;20029;-81
2022/10/06 12:01:30;;;;;;;9.85;2.70;;;;;;;16.34;59.02;102800.78;5308154;28;20063;-75
2022/10/06 12:04:07;;;;;;;7.05;2.17;;;;;;;16.51;57.93;102801.31;5296765;28;20042;-76
2022/10/06 12:06:42;;;;;;;6.45;1.83;;;;;;;16.52;56.12;102802.97;5295768;28;20413;-74
2022/10/06 12:09:22;;;;;;;9.20;2.15;;;;;;;16.57;54.82;102809.72;5296816;28;20124;-77
2022/10/06 12:12:20;;;;;;;13.98;3.63;;;;;;;16.66;53.29;102808.00;5302250;28;20089;-81
2022/10/06 12:15:16;;;;;;;12.43;8.45;;;;;;;16.74;53.77;102804.59;5296545;28;20398;-81
2022/10/06 12:18:15;;;;;;;5.38;2.65;;;;;;;16.68;53.42;102806.59;5306053;28;20021;-75
2022/10/06 12:20:56;;;;;;;6.88;2.05;;;;;;;16.73;54.19;102797.34;5296304;28;20041;-76
2022/10/06 12:23:51;;;;;;;6.07;2.17;;;;;;;16.89;54.58;102796.19;5289643;28;20040;-73
2022/10/06 12:26:32;;;;;;;6.60;3.67;;;;;;;16.80;53.38;102792.31;5291195;28;20020;-75
2022/10/06 12:29:40;;;;;;;6.95;2.05;;;;;;;16.94;52.70;102789.72;5287680;28;20415;-74
2022/10/06 12:32:33;;;;;;;5.25;2.13;;;;;;;17.00;53.28;102784.94;5305531;28;20024;-74
2022/10/06 12:35:26;;;;;;;5.40;1.67;;;;;;;17.06;52.84;102772.59;5295396;28;20032;-74
2022/10/06 12:38:04;;;;;;;3.50;1.77;;;;;;;17.13;51.95;102778.75;5287550;28;20413;-75
2022/10/06 12:40:47;;;;;;;5.82;2.58;;;;;;;17.14;51.91;102775.63;5288448;28;20033;-73
2022/10/06 12:43:22;;;;;;;4.75;1.70;;;;;;;17.20;53.00;102782.03;5288811;28;20425;-73
2022/10/06 12:46:15;;;;;;;6.50;1.48;;;;;;;17.29;52.31;102780.31;5289877;28;20075;-74
2022/10/06 12:49:15;;;;;;;6.32;1.80;;;;;;;17.50;51.99;102785.81;5291597;28;20433;-74
2022/10/06 12:51:50;;;;;;;16.52;11.63;;;;;;;17.41;50.43;102779.13;5288804;28;20079;-72
2022/10/06 12:54:29;;;;;;;8.40;2.13;;;;;;;17.39;49.52;102777.47;5299296;28;20047;-74
2022/10/06 12:57:16;;;;;;;4.57;2.05;;;;;;;17.50;48.97;102786.66;5308172;28;20024;-73
2022/10/06 12:59:48;;;;;;;7.35;2.50;;;;;;;17.41;48.20;102781.94;5308335;28;20111;-72
2022/10/06 13:02:24;;;;;;;5.85;1.75;;;;;;;17.49;48.75;102781.34;5310848;28;20016;-73
2022/10/06 13:05:00;;;;;;;5.40;1.70;;;;;;;17.49;48.58;102770.13;5305739;28;20047;-75
2022/10/06 13:07:53;;;;;;;4.30;1.40;;;;;;;17.53;48.46;102776.81;5292499;28;20031;-75
2022/10/06 13:10:25;;;;;;;10.18;2.05;;;;;;;17.63;48.52;102779.56;5303120;28;20115;-74
2022/10/06 13:12:58;;;;;;;6.03;1.75;;;;;;;17.68;48.17;102771.09;5313350;28;20024;-76
2022/10/06 13:15:30;;;;;;;5.97;1.85;;;;;;;17.67;48.45;102771.41;5303969;28;20128;-78
2022/10/06 13:18:14;;;;;;;4.75;2.10;;;;;;;17.70;47.87;102770.81;5299202;28;20021;-78
2022/10/06 13:20:48;;;;;;;7.38;1.75;;;;;;;17.65;48.34;102768.88;5299340;28;20114;-75
2022/10/06 13:23:38;;;;;;;5.25;1.73;;;;;;;17.79;49.37;102769.06;5320283;28;20051;-82
2022/10/06 13:26:23;;;;;;;4.57;1.58;;;;;;;17.80;47.76;102765.16;5311783;28;20016;-84
2022/10/06 13:28:59;;;;;;;2.78;1.60;;;;;;;17.72;48.20;102766.59;5323340;28;20043;-77
2022/10/06 13:31:33;;;;;;;5.40;2.20;;;;;;;17.68;47.73;102768.31;5304398;28;20066;-81
2022/10/06 13:34:10;;;;;;;7.87;1.90;;;;;;;17.65;47.57;102757.66;5317149;28;20016;-80
2022/10/06 13:36:47;;;;;;;4.50;2.33;;;;;;;17.63;48.02;102773.94;5307225;28;20318;-79
2022/10/06 13:39:24;;;;;;;5.97;2.20;;;;;;;17.60;47.46;102769.75;5313105;28;20016;-78
2022/10/06 13:42:07;;;;;;;10.05;6.78;;;;;;;17.50;47.63;102769.81;5313162;28;20088;-80
2022/10/06 13:44:52;;;;;;;7.75;2.28;;;;;;;17.59;47.87;102770.06;5296962;28;20033;-81
2022/10/06 13:47:28;;;;;;;5.35;1.95;;;;;;;17.51;47.60;102767.84;5302277;28;20040;-76
2022/10/06 13:50:04;;;;;;;6.25;2.22;;;;;;;17.52;48.27;102764.75;5309643;28;20024;-82
2022/10/06 13:52:38;;;;;;;3.47;1.48;;;;;;;17.56;47.94;102770.63;5304849;28;20041;-78
2022/10/06 13:55:23;;;;;;;3.92;1.60;;;;;;;17.59;47.49;102770.06;5310606;28;20069;-77
2022/10/06 13:57:58;;;;;;;7.05;1.77;;;;;;;17.59;47.37;102767.25;5295594;28;20024;-79
2022/10/06 14:00:51;;;;;;;2.97;1.50;;;;;;;17.44;48.12;102759.78;5317007;28;20086;-80
2022/10/06 14:03:34;;;;;;;6.93;2.70;;;;;;;17.47;47.57;102761.16;5313332;28;20028;-75
2022/10/06 14:06:08;;;;;;;4.55;1.83;;;;;;;17.52;47.71;102764.75;5311391;28;20074;-76
2022/10/06 14:08:42;;;;;;;4.97;1.52;;;;;;;17.52;48.27;102773.19;5302401;28;20088;-75
2022/10/06 14:11:23;;;;;;;5.13;1.75;;;;;;;17.65;47.96;102779.28;5308996;28;20036;-76
2022/10/06 14:14:03;;;;;;;5.38;1.90;;;;;;;17.62;48.04;102775.09;5311456;28;20032;-79
2022/10/06 14:16:34;;;;;;;10.73;2.00;;;;;;;17.56;47.84;102770.63;5308430;28;20027;-75
2022/10/06 14:19:28;;;;;;;6.25;1.40;;;;;;;17.53;48.26;102766.44;5301831;28;20032;-75
2022/10/06 14:22:01;;;;;;;5.05;1.73;;;;;;;17.44;47.74;102768.19;5295434;28;20070;-76
2022/10/06 14:24:36;;;;;;;8.07;2.10;;;;;;;17.43;48.26;102776.88;5296110;28;20016;-75
2022/10/06 14:27:07;;;;;;;4.30;1.58;;;;;;;17.38;48.93;102767.38;5315634;28;20028;-78
2022/10/06 14:29:40;;;;;;;7.40;2.13;;;;;;;17.53;49.49;102771.22;5309956;28;20043;-79
2022/10/06 14:32:16;;;;;;;6.75;2.65;;;;;;;17.43;48.45;102765.66;5292661;28;20031;-78
2022/10/06 14:34:47;;;;;;;9.82;6.20;;;;;;;17.41;48.10;102765.09;5294983;28;20110;-79
2022/10/06 14:37:18;;;;;;;6.07;2.65;;;;;;;17.42;48.19;102769.59;5309463;28;20054;-78
2022/10/06 14:39:51;;;;;;;9.80;2.17;;;;;;;17.23;47.59;102761.88;5314106;28;20020;-78
2022/10/06 14:42:23;;;;;;;6.93;2.10;;;;;;;17.24;47.92;102760.72;5299134;28;20017;-80
2022/10/06 14:44:54;;;;;;;5.40;1.75;;;;;;;17.24;47.56;102760.72;5299494;28;20027;-80
2022/10/06 14:47:25;;;;;;;5.32;1.80;;;;;;;17.28;48.19;102760.97;5301525;28;20088;-80
2022/10/06 14:49:56;;;;;;;21.52;18.45;;;;;;;17.27;47.82;102762.13;5301226;28;20058;-81
2022/10/06 14:52:28;;;;;;;7.22;3.97;;;;;;;17.33;48.19;102767.41;5317000;28;20032;-76
2022/10/06 14:54:59;;;;;;;6.10;2.00;;;;;;;17.35;47.83;102762.34;5295379;28;20033;-77
2022/10/06 14:57:30;;;;;;;7.72;1.70;;;;;;;17.36;47.75;102758.41;5291365;28;20049;-76
2022/10/06 15:00:04;;;;;;;7.57;1.90;;;;;;;17.54;47.70;102761.69;5294167;28;20033;-76
2022/10/06 15:02:36;;;;;;;6.70;1.70;;;;;;;17.48;48.20;102766.47;5293428;28;20031;-78
2022/10/06 15:05:07;;;;;;;8.80;2.15;;;;;;;17.48;46.94;102760.03;5306909;28;20020;-77
2022/10/06 15:10:30;;;;;;;2.88;1.52;;;;;;;17.44;47.68;102758.94;5305347;28;20483;-75
2022/10/06 15:13:02;;;;;;;4.43;1.38;;;;;;;17.46;47.54;102756.66;5302188;28;20021;-76
2022/10/06 15:15:34;;;;;;;5.70;2.28;;;;;;;17.28;47.49;102747.81;5300529;28;20123;-75
2022/10/06 15:18:06;;;;;;;5.38;1.63;;;;;;;17.38;47.44;102747.75;5289392;28;20051;-76
2022/10/06 15:20:37;;;;;;;9.25;2.00;;;;;;;17.27;47.94;102753.69;5309481;28;20032;-76
2022/10/06 15:23:11;;;;;;;3.10;1.70;;;;;;;17.32;47.50;102743.28;5291899;28;20048;-76
2022/10/06 15:31:34;;;;;;;20.70;11.38;;;;;;;17.31;48.61;102733.22;5294875;28;20029;-74
2022/10/06 15:34:08;;;;;;;4.88;2.25;;;;;;;17.17;48.58;102732.16;5304076;28;20031;-77
2022/10/06 15:36:41;;;;;;;4.80;2.70;;;;;;;17.12;48.10;102737.78;5299791;28;20368;-73
2022/10/06 15:39:17;;;;;;;8.27;2.22;;;;;;;17.08;48.45;102725.50;5296926;28;20016;-73
2022/10/06 15:41:49;;;;;;;7.88;1.58;;;;;;;17.14;48.07;102736.38;5282262;28;20792;-72
2022/10/06 15:44:20;;;;;;;4.90;1.70;;;;;;;17.03;48.46;102733.94;5281673;28;20151;-73
2022/10/06 15:46:54;;;;;;;6.20;2.45;;;;;;;16.97;49.13;102735.06;5281408;28;20523;-73
2022/10/06 15:49:31;;;;;;;5.10;2.08;;;;;;;17.04;48.81;102732.78;5294420;28;20050;-74
2022/10/06 15:52:03;;;;;;;3.20;1.60;;;;;;;17.02;48.36;102733.06;5306151;28;20360;-73
2022/10/06 15:54:37;;;;;;;5.75;2.03;;;;;;;17.00;48.16;102735.34;5292762;28;20070;-74
2022/10/06 15:57:10;;;;;;;5.70;1.63;;;;;;;16.97;49.24;102726.66;5300732;28;20113;-76
2022/10/06 15:59:42;;;;;;;4.22;1.50;;;;;;;16.94;48.37;102731.72;5306152;28;20028;-72
2022/10/06 16:02:16;;;;;;;3.65;1.67;;;;;;;16.85;48.72;102727.84;5288734;28;20032;-69
2022/10/06 16:05:25;;;;;;;5.65;1.65;;;;;;;16.90;48.38;102730.63;5282023;28;20084;-71
2022/10/06 16:07:45;;;;;;;5.95;1.60;;;;;;;16.86;48.77;102731.47;5282748;28;20036;-72
2022/10/06 16:10:16;;;;;;;5.57;2.22;;;;;;;16.79;49.03;102745.78;5290816;28;20043;-70
2022/10/06 16:12:47;;;;;;;5.18;1.95;;;;;;;16.80;48.93;102738.25;5295620;28;20468;-70
2022/10/06 16:15:19;;;;;;;4.18;1.48;;;;;;;16.79;49.46;102733.75;5299954;28;20028;-70
2022/10/06 16:17:50;;;;;;;8.15;2.05;;;;;;;16.72;49.01;102739.63;5303934;28;20020;-70
2022/10/06 16:20:21;;;;;;;3.28;1.83;;;;;;;16.71;48.91;102735.13;5284694;28;20041;-69
2022/10/06 16:22:55;;;;;;;4.88;1.88;;;;;;;16.69;49.57;102740.19;5290224;28;20032;-69
2022/10/06 16:25:27;;;;;;;4.80;1.60;;;;;;;16.58;49.80;102733.78;5293858;28;20032;-70
2022/10/06 16:27:58;;;;;;;6.25;1.85;;;;;;;16.58;49.78;102738.56;5307221;28;20024;-70
2022/10/06 16:30:30;;;;;;;3.78;1.63;;;;;;;16.48;50.01;102734.66;5290252;28;20058;-70
2022/10/06 16:33:04;;;;;;;3.50;1.83;;;;;;;16.48;50.02;102745.00;5288469;28;20040;-71
2022/10/06 16:35:35;;;;;;;6.68;2.10;;;;;;;16.39;50.56;102736.38;5296812;28;20027;-69
2022/10/06 16:38:06;;;;;;;3.33;1.38;;;;;;;16.40;51.16;102731.59;5309573;28;20027;-73
2022/10/06 16:40:38;;;;;;;4.93;1.48;;;;;;;16.36;51.37;102739.75;5309853;28;20099;-71
2022/10/06 16:43:15;;;;;;;5.97;1.88;;;;;;;16.37;51.12;102744.19;5308678;28;20051;-71
2022/10/06 16:45:57;;;;;;;4.32;1.83;;;;;;;16.33;52.03;102743.06;5297234;28;20030;-71
2022/10/06 16:48:31;;;;;;;6.63;1.88;;;;;;;16.27;51.48;102738.63;5291420;28;20119;-71
2022/10/06 16:51:30;;;;;;;4.72;1.80;;;;;;;16.29;51.83;102742.81;5306527;28;20023;-71
2022/10/06 16:54:05;;;;;;;3.55;1.60;;;;;;;16.20;51.78;102735.28;5292119;28;20033;-70
2022/10/06 16:56:53;;;;;;;4.18;1.55;;;;;;;16.15;52.41;102735.28;5285816;28;20033;-70
2022/10/06 16:59:25;;;;;;;6.40;1.80;;;;;;;16.09;52.03;102738.06;5286308;28;20028;-70
2022/10/06 17:01:56;;;;;;;9.32;2.38;;;;;;;15.98;52.64;102736.41;5286314;28;20044;-70
2022/10/06 17:04:28;;;;;;;5.28;2.03;;;;;;;16.01;52.42;102737.81;5286646;28;20025;-71
2022/10/06 17:07:03;;;;;;;4.90;2.60;;;;;;;15.96;53.00;102735.84;5304500;28;20020;-69
2022/10/06 17:09:34;;;;;;;3.67;1.75;;;;;;;15.86;52.72;102730.25;5307424;28;20028;-67
2022/10/06 17:12:05;;;;;;;5.22;1.85;;;;;;;15.71;53.93;102738.66;5297763;28;20027;-67
2022/10/06 17:14:36;;;;;;;5.97;2.10;;;;;;;15.75;54.33;102731.41;5297759;28;20028;-67
2022/10/06 17:17:08;;;;;;;5.15;2.20;;;;;;;15.66;54.79;102733.84;5286262;28;20035;-70
2022/10/06 17:19:39;;;;;;;4.50;1.80;;;;;;;15.55;55.04;102743.38;5292095;28;20118;-70
2022/10/06 17:22:10;;;;;;;5.60;2.30;;;;;;;15.54;55.84;102734.09;5286635;28;20028;-71
2022/10/06 17:24:42;;;;;;;7.78;2.58;;;;;;;15.48;56.17;102738.03;5304739;28;20032;-71
2022/10/06 17:27:13;;;;;;;9.80;2.70;;;;;;;15.39;56.56;102734.09;5305199;28;20035;-70
2022/10/06 17:29:44;;;;;;;8.23;2.83;;;;;;;15.35;57.25;102747.78;5285861;28;20025;-72
2022/10/06 17:32:16;;;;;;;6.60;3.17;;;;;;;15.44;57.21;102736.88;5284460;28;20097;-70
